sensor_id;sensor_type;location;lat;lon;timestamp;P1;durP1;ratioP1;P2;durP2;ratioP2
16115;SDS011;8162;47.104;15.432;2024-03-08T00:00:00;13.63;;;9.17;;
16115;SDS011;8162;47.104;15.432;2024-03-08T00:03:09;12.60;;;10.10;;
16115;SDS011;8162;47.104;15.432;2024-03-08T00:06:10;11.77;;;9.37;;
16115;SDS011;8162;47.104;15.432;2024-03-08T00:09:10;16.53;;;9.20;;
16115;SDS011;8162;47.104;15.432;2024-03-08T00:12:14;11.57;;;9.50;;
16115;SDS011;8162;47.104;15.432;2024-03-08T00:15:16;14.33;;;9.87;;
16115;SDS011;8162;47.104;15.432;2024-03-08T00:18:17;12.33;;;9.33;;
16115;SDS011;8162;47.104;15.432;2024-03-08T00:21:18;12.13;;;9.60;;
16115;SDS011;8162;47.104;15.432;2024-03-08T00:24:18;15.23;;;10.73;;
16115;SDS011;8162;47.104;15.432;2024-03-08T00:27:24;14.70;;;10.30;;
16115;SDS011;8162;47.104;15.432;2024-03-08T00:30:24;13.37;;;9.63;;
16115;SDS011;8162;47.104;15.432;2024-03-08T00:33:25;19.20;;;12.00;;
16115;SDS011;8162;47.104;15.432;2024-03-08T00:36:27;20.43;;;13.87;;
16115;SDS011;8162;47.104;15.432;2024-03-08T00:39:30;18.13;;;12.27;;
16115;SDS011;8162;47.104;15.432;2024-03-08T00:42:30;13.93;;;10.90;;
16115;SDS011;8162;47.104;15.432;2024-03-08T00:45:31;14.63;;;9.57;;
16115;SDS011;8162;47.104;15.432;2024-03-08T00:48:32;13.00;;;10.60;;
16115;SDS011;8162;47.104;15.432;2024-03-08T00:51:32;13.77;;;10.70;;
16115;SDS011;8162;47.104;15.432;2024-03-08T00:54:34;14.13;;;10.33;;
16115;SDS011;8162;47.104;15.432;2024-03-08T00:57:36;13.77;;;9.33;;
16115;SDS011;8162;47.104;15.432;2024-03-08T01:00:36;12.30;;;10.10;;
16115;SDS011;8162;47.104;15.432;2024-03-08T01:03:38;13.47;;;10.23;;
16115;SDS011;8162;47.104;15.432;2024-03-08T01:06:39;15.83;;;10.47;;
16115;SDS011;8162;47.104;15.432;2024-03-08T01:09:40;13.43;;;10.73;;
16115;SDS011;8162;47.104;15.432;2024-03-08T01:12:41;12.50;;;9.67;;
16115;SDS011;8162;47.104;15.432;2024-03-08T01:15:45;12.33;;;9.57;;
16115;SDS011;8162;47.104;15.432;2024-03-08T01:18:46;14.93;;;10.37;;
16115;SDS011;8162;47.104;15.432;2024-03-08T01:21:46;12.40;;;9.80;;
16115;SDS011;8162;47.104;15.432;2024-03-08T01:24:47;17.57;;;10.63;;
16115;SDS011;8162;47.104;15.432;2024-03-08T01:27:48;15.70;;;11.03;;
16115;SDS011;8162;47.104;15.432;2024-03-08T01:30:49;12.63;;;9.97;;
16115;SDS011;8162;47.104;15.432;2024-03-08T01:33:55;12.83;;;9.80;;
16115;SDS011;8162;47.104;15.432;2024-03-08T01:36:56;12.83;;;9.63;;
16115;SDS011;8162;47.104;15.432;2024-03-08T01:39:57;14.00;;;10.50;;
16115;SDS011;8162;47.104;15.432;2024-03-08T01:43:14;15.70;;;11.10;;
16115;SDS011;8162;47.104;15.432;2024-03-08T01:46:17;12.73;;;10.50;;
16115;SDS011;8162;47.104;15.432;2024-03-08T01:49:22;14.73;;;10.80;;
16115;SDS011;8162;47.104;15.432;2024-03-08T01:52:25;13.10;;;10.27;;
16115;SDS011;8162;47.104;15.432;2024-03-08T01:55:26;12.00;;;9.80;;
16115;SDS011;8162;47.104;15.432;2024-03-08T01:58:27;14.37;;;10.43;;
16115;SDS011;8162;47.104;15.432;2024-03-08T02:01:28;11.97;;;10.37;;
16115;SDS011;8162;47.104;15.432;2024-03-08T02:04:29;15.20;;;10.73;;
16115;SDS011;8162;47.104;15.432;2024-03-08T02:07:33;13.27;;;10.03;;
16115;SDS011;8162;47.104;15.432;2024-03-08T02:10:34;13.73;;;10.23;;
16115;SDS011;8162;47.104;15.432;2024-03-08T02:13:35;15.60;;;10.90;;
16115;SDS011;8162;47.104;15.432;2024-03-08T02:16:36;16.33;;;11.23;;
16115;SDS011;8162;47.104;15.432;2024-03-08T02:19:37;13.40;;;10.67;;
16115;SDS011;8162;47.104;15.432;2024-03-08T02:22:38;13.77;;;11.30;;
16115;SDS011;8162;47.104;15.432;2024-03-08T02:25:39;13.33;;;10.33;;
16115;SDS011;8162;47.104;15.432;2024-03-08T02:28:40;14.20;;;11.10;;
16115;SDS011;8162;47.104;15.432;2024-03-08T02:31:43;16.83;;;11.40;;
16115;SDS011;8162;47.104;15.432;2024-03-08T02:34:43;14.30;;;11.10;;
16115;SDS011;8162;47.104;15.432;2024-03-08T02:37:44;16.33;;;11.33;;
16115;SDS011;8162;47.104;15.432;2024-03-08T02:40:48;13.00;;;11.13;;
16115;SDS011;8162;47.104;15.432;2024-03-08T02:43:51;15.23;;;11.37;;
16115;SDS011;8162;47.104;15.432;2024-03-08T02:46:51;14.77;;;11.57;;
16115;SDS011;8162;47.104;15.432;2024-03-08T02:49:55;16.57;;;11.57;;
16115;SDS011;8162;47.104;15.432;2024-03-08T02:52:55;16.53;;;12.10;;
16115;SDS011;8162;47.104;15.432;2024-03-08T02:55:56;14.77;;;11.13;;
16115;SDS011;8162;47.104;15.432;2024-03-08T02:58:57;15.17;;;11.03;;
16115;SDS011;8162;47.104;15.432;2024-03-08T03:01:57;14.77;;;11.60;;
16115;SDS011;8162;47.104;15.432;2024-03-08T03:04:58;14.50;;;11.23;;
16115;SDS011;8162;47.104;15.432;2024-03-08T03:08:02;17.00;;;11.90;;
16115;SDS011;8162;47.104;15.432;2024-03-08T03:11:08;15.93;;;11.10;;
16115;SDS011;8162;47.104;15.432;2024-03-08T03:14:09;12.40;;;10.37;;
16115;SDS011;8162;47.104;15.432;2024-03-08T03:17:10;17.63;;;11.60;;
16115;SDS011;8162;47.104;15.432;2024-03-08T03:20:10;14.43;;;10.80;;
16115;SDS011;8162;47.104;15.432;2024-03-08T03:23:13;13.93;;;10.90;;
16115;SDS011;8162;47.104;15.432;2024-03-08T03:26:14;14.47;;;11.17;;
16115;SDS011;8162;47.104;15.432;2024-03-08T03:29:17;14.00;;;10.63;;
16115;SDS011;8162;47.104;15.432;2024-03-08T03:32:18;15.70;;;11.20;;
16115;SDS011;8162;47.104;15.432;2024-03-08T03:35:18;14.10;;;10.27;;
16115;SDS011;8162;47.104;15.432;2024-03-08T03:38:20;13.93;;;10.10;;
16115;SDS011;8162;47.104;15.432;2024-03-08T03:41:23;14.57;;;10.47;;
16115;SDS011;8162;47.104;15.432;2024-03-08T03:44:24;14.40;;;10.93;;
16115;SDS011;8162;47.104;15.432;2024-03-08T03:47:25;16.87;;;11.73;;
16115;SDS011;8162;47.104;15.432;2024-03-08T03:50:27;15.83;;;11.30;;
16115;SDS011;8162;47.104;15.432;2024-03-08T03:53:27;15.10;;;11.53;;
16115;SDS011;8162;47.104;15.432;2024-03-08T03:56:28;21.43;;;12.50;;
16115;SDS011;8162;47.104;15.432;2024-03-08T03:59:30;16.50;;;11.63;;
16115;SDS011;8162;47.104;15.432;2024-03-08T04:02:31;15.57;;;11.80;;
16115;SDS011;8162;47.104;15.432;2024-03-08T04:05:32;15.60;;;10.83;;
16115;SDS011;8162;47.104;15.432;2024-03-08T04:08:32;19.60;;;12.33;;
16115;SDS011;8162;47.104;15.432;2024-03-08T04:11:34;15.37;;;12.17;;
16115;SDS011;8162;47.104;15.432;2024-03-08T04:14:34;17.80;;;12.30;;
16115;SDS011;8162;47.104;15.432;2024-03-08T04:17:35;17.30;;;13.27;;
16115;SDS011;8162;47.104;15.432;2024-03-08T04:20:37;18.43;;;13.07;;
16115;SDS011;8162;47.104;15.432;2024-03-08T04:23:37;16.23;;;12.77;;
16115;SDS011;8162;47.104;15.432;2024-03-08T04:26:38;16.20;;;12.67;;
16115;SDS011;8162;47.104;15.432;2024-03-08T04:29:39;17.33;;;13.63;;
16115;SDS011;8162;47.104;15.432;2024-03-08T04:32:39;15.87;;;12.30;;
16115;SDS011;8162;47.104;15.432;2024-03-08T04:35:41;18.20;;;13.10;;
16115;SDS011;8162;47.104;15.432;2024-03-08T04:38:42;17.97;;;12.60;;
16115;SDS011;8162;47.104;15.432;2024-03-08T04:41:42;20.07;;;14.03;;
16115;SDS011;8162;47.104;15.432;2024-03-08T04:44:46;20.37;;;14.37;;
16115;SDS011;8162;47.104;15.432;2024-03-08T04:47:47;18.37;;;13.67;;
16115;SDS011;8162;47.104;15.432;2024-03-08T04:50:48;17.13;;;12.80;;
16115;SDS011;8162;47.104;15.432;2024-03-08T04:53:49;18.03;;;13.13;;
16115;SDS011;8162;47.104;15.432;2024-03-08T04:56:49;20.30;;;14.57;;
16115;SDS011;8162;47.104;15.432;2024-03-08T04:59:50;18.87;;;14.00;;
16115;SDS011;8162;47.104;15.432;2024-03-08T05:02:51;14.27;;;11.63;;
16115;SDS011;8162;47.104;15.432;2024-03-08T05:05:53;18.33;;;13.40;;
16115;SDS011;8162;47.104;15.432;2024-03-08T05:08:53;19.73;;;14.57;;
16115;SDS011;8162;47.104;15.432;2024-03-08T05:11:54;19.27;;;13.57;;
16115;SDS011;8162;47.104;15.432;2024-03-08T05:14:55;16.47;;;13.10;;
16115;SDS011;8162;47.104;15.432;2024-03-08T05:17:55;18.87;;;14.67;;
16115;SDS011;8162;47.104;15.432;2024-03-08T05:20:57;19.20;;;13.87;;
16115;SDS011;8162;47.104;15.432;2024-03-08T05:23:58;19.30;;;13.57;;
16115;SDS011;8162;47.104;15.432;2024-03-08T05:26:59;18.87;;;14.43;;
16115;SDS011;8162;47.104;15.432;2024-03-08T05:30:00;18.03;;;13.70;;
16115;SDS011;8162;47.104;15.432;2024-03-08T05:33:01;18.77;;;14.17;;
16115;SDS011;8162;47.104;15.432;2024-03-08T05:36:02;19.07;;;13.63;;
16115;SDS011;8162;47.104;15.432;2024-03-08T05:39:03;18.50;;;13.77;;
16115;SDS011;8162;47.104;15.432;2024-03-08T05:42:06;18.50;;;13.70;;
16115;SDS011;8162;47.104;15.432;2024-03-08T05:45:08;17.33;;;12.57;;
16115;SDS011;8162;47.104;15.432;2024-03-08T05:48:11;16.93;;;12.57;;
16115;SDS011;8162;47.104;15.432;2024-03-08T05:51:13;18.37;;;14.20;;
16115;SDS011;8162;47.104;15.432;2024-03-08T05:54:14;22.20;;;14.63;;
16115;SDS011;8162;47.104;15.432;2024-03-08T05:57:14;20.93;;;14.20;;
16115;SDS011;8162;47.104;15.432;2024-03-08T06:00:15;18.27;;;13.60;;
16115;SDS011;8162;47.104;15.432;2024-03-08T06:03:16;18.93;;;13.57;;
16115;SDS011;8162;47.104;15.432;2024-03-08T06:06:18;20.27;;;13.77;;
16115;SDS011;8162;47.104;15.432;2024-03-08T06:09:18;20.63;;;13.67;;
16115;SDS011;8162;47.104;15.432;2024-03-08T06:12:23;20.47;;;13.83;;
16115;SDS011;8162;47.104;15.432;2024-03-08T06:15:28;19.23;;;13.07;;
16115;SDS011;8162;47.104;15.432;2024-03-08T06:18:29;17.47;;;13.47;;
16115;SDS011;8162;47.104;15.432;2024-03-08T06:21:31;20.77;;;13.50;;
16115;SDS011;8162;47.104;15.432;2024-03-08T06:24:32;17.80;;;12.57;;
16115;SDS011;8162;47.104;15.432;2024-03-08T06:27:32;19.47;;;14.50;;
16115;SDS011;8162;47.104;15.432;2024-03-08T06:30:34;19.43;;;14.23;;
16115;SDS011;8162;47.104;15.432;2024-03-08T06:33:34;19.70;;;14.03;;
16115;SDS011;8162;47.104;15.432;2024-03-08T06:36:35;23.37;;;15.33;;
16115;SDS011;8162;47.104;15.432;2024-03-08T06:39:37;20.73;;;14.67;;
16115;SDS011;8162;47.104;15.432;2024-03-08T06:42:38;20.60;;;15.67;;
16115;SDS011;8162;47.104;15.432;2024-03-08T06:45:39;18.73;;;15.57;;
16115;SDS011;8162;47.104;15.432;2024-03-08T06:48:40;20.57;;;15.70;;
16115;SDS011;8162;47.104;15.432;2024-03-08T06:51:41;20.90;;;15.10;;
16115;SDS011;8162;47.104;15.432;2024-03-08T06:54:42;21.00;;;14.80;;
16115;SDS011;8162;47.104;15.432;2024-03-08T06:57:42;23.00;;;15.67;;
16115;SDS011;8162;47.104;15.432;2024-03-08T07:00:43;20.80;;;14.43;;
16115;SDS011;8162;47.104;15.432;2024-03-08T07:03:44;19.77;;;14.90;;
16115;SDS011;8162;47.104;15.432;2024-03-08T07:06:44;23.10;;;15.73;;
16115;SDS011;8162;47.104;15.432;2024-03-08T07:09:45;21.10;;;14.80;;
16115;SDS011;8162;47.104;15.432;2024-03-08T07:12:46;21.43;;;15.93;;
16115;SDS011;8162;47.104;15.432;2024-03-08T07:15:48;19.90;;;14.23;;
16115;SDS011;8162;47.104;15.432;2024-03-08T07:18:48;18.07;;;14.47;;
16115;SDS011;8162;47.104;15.432;2024-03-08T07:21:52;19.90;;;14.60;;
16115;SDS011;8162;47.104;15.432;2024-03-08T07:24:52;18.03;;;13.73;;
16115;SDS011;8162;47.104;15.432;2024-03-08T07:28:10;19.30;;;14.97;;
16115;SDS011;8162;47.104;15.432;2024-03-08T07:31:12;18.17;;;13.43;;
16115;SDS011;8162;47.104;15.432;2024-03-08T07:34:23;17.63;;;13.03;;
16115;SDS011;8162;47.104;15.432;2024-03-08T07:37:24;18.73;;;13.50;;
16115;SDS011;8162;47.104;15.432;2024-03-08T07:40:24;15.77;;;12.23;;
16115;SDS011;8162;47.104;15.432;2024-03-08T07:43:25;17.63;;;13.43;;
16115;SDS011;8162;47.104;15.432;2024-03-08T07:46:27;15.63;;;12.90;;
16115;SDS011;8162;47.104;15.432;2024-03-08T07:49:29;19.03;;;13.03;;
16115;SDS011;8162;47.104;15.432;2024-03-08T07:52:30;16.77;;;12.57;;
16115;SDS011;8162;47.104;15.432;2024-03-08T07:55:30;17.43;;;12.20;;
16115;SDS011;8162;47.104;15.432;2024-03-08T07:58:31;17.87;;;12.23;;
16115;SDS011;8162;47.104;15.432;2024-03-08T08:01:32;16.10;;;12.40;;
16115;SDS011;8162;47.104;15.432;2024-03-08T08:04:33;16.60;;;12.43;;
16115;SDS011;8162;47.104;15.432;2024-03-08T08:07:34;19.73;;;13.27;;
16115;SDS011;8162;47.104;15.432;2024-03-08T08:10:36;18.40;;;14.23;;
16115;SDS011;8162;47.104;15.432;2024-03-08T08:13:37;23.90;;;15.80;;
16115;SDS011;8162;47.104;15.432;2024-03-08T08:16:39;21.60;;;15.93;;
16115;SDS011;8162;47.104;15.432;2024-03-08T08:19:42;27.10;;;17.67;;
16115;SDS011;8162;47.104;15.432;2024-03-08T08:22:43;21.53;;;16.60;;
16115;SDS011;8162;47.104;15.432;2024-03-08T08:25:44;23.77;;;16.90;;
16115;SDS011;8162;47.104;15.432;2024-03-08T08:28:45;21.70;;;16.57;;
16115;SDS011;8162;47.104;15.432;2024-03-08T08:31:46;22.77;;;17.17;;
16115;SDS011;8162;47.104;15.432;2024-03-08T08:34:47;23.67;;;17.17;;
16115;SDS011;8162;47.104;15.432;2024-03-08T08:37:48;24.17;;;16.63;;
16115;SDS011;8162;47.104;15.432;2024-03-08T08:40:48;24.17;;;17.07;;
16115;SDS011;8162;47.104;15.432;2024-03-08T08:43:50;22.43;;;17.27;;
16115;SDS011;8162;47.104;15.432;2024-03-08T08:46:50;20.60;;;15.47;;
16115;SDS011;8162;47.104;15.432;2024-03-08T08:49:51;20.47;;;15.40;;
16115;SDS011;8162;47.104;15.432;2024-03-08T08:52:52;19.23;;;15.37;;
16115;SDS011;8162;47.104;15.432;2024-03-08T08:55:55;20.37;;;15.07;;
16115;SDS011;8162;47.104;15.432;2024-03-08T08:58:56;19.93;;;14.43;;
16115;SDS011;8162;47.104;15.432;2024-03-08T09:01:57;18.07;;;14.40;;
16115;SDS011;8162;47.104;15.432;2024-03-08T09:04:58;18.63;;;12.83;;
16115;SDS011;8162;47.104;15.432;2024-03-08T09:08:00;17.57;;;12.87;;
16115;SDS011;8162;47.104;15.432;2024-03-08T09:11:01;17.30;;;11.83;;
16115;SDS011;8162;47.104;15.432;2024-03-08T09:14:02;18.23;;;12.60;;
16115;SDS011;8162;47.104;15.432;2024-03-08T09:17:02;16.33;;;12.30;;
16115;SDS011;8162;47.104;15.432;2024-03-08T09:20:03;16.23;;;12.80;;
16115;SDS011;8162;47.104;15.432;2024-03-08T09:23:04;15.30;;;12.43;;
16115;SDS011;8162;47.104;15.432;2024-03-08T09:26:05;16.80;;;12.17;;
16115;SDS011;8162;47.104;15.432;2024-03-08T09:29:09;17.73;;;12.90;;
16115;SDS011;8162;47.104;15.432;2024-03-08T09:32:10;15.10;;;12.30;;
16115;SDS011;8162;47.104;15.432;2024-03-08T09:35:11;14.07;;;10.73;;
16115;SDS011;8162;47.104;15.432;2024-03-08T09:38:12;14.43;;;10.63;;
16115;SDS011;8162;47.104;15.432;2024-03-08T09:41:13;12.70;;;10.27;;
16115;SDS011;8162;47.104;15.432;2024-03-08T09:44:14;16.43;;;12.17;;
16115;SDS011;8162;47.104;15.432;2024-03-08T09:47:19;13.17;;;9.73;;
16115;SDS011;8162;47.104;15.432;2024-03-08T09:50:24;15.90;;;10.30;;
16115;SDS011;8162;47.104;15.432;2024-03-08T09:53:28;14.53;;;10.07;;
16115;SDS011;8162;47.104;15.432;2024-03-08T09:56:31;15.20;;;10.40;;
16115;SDS011;8162;47.104;15.432;2024-03-08T09:59:35;12.67;;;10.03;;
16115;SDS011;8162;47.104;15.432;2024-03-08T10:02:36;13.43;;;9.27;;
16115;SDS011;8162;47.104;15.432;2024-03-08T10:05:36;12.77;;;10.37;;
16115;SDS011;8162;47.104;15.432;2024-03-08T10:08:37;11.73;;;9.90;;
16115;SDS011;8162;47.104;15.432;2024-03-08T10:11:39;11.73;;;9.70;;
16115;SDS011;8162;47.104;15.432;2024-03-08T10:14:40;13.73;;;11.03;;
16115;SDS011;8162;47.104;15.432;2024-03-08T10:17:42;11.23;;;9.47;;
16115;SDS011;8162;47.104;15.432;2024-03-08T10:20:43;10.43;;;9.13;;
16115;SDS011;8162;47.104;15.432;2024-03-08T10:23:46;11.13;;;9.90;;
16115;SDS011;8162;47.104;15.432;2024-03-08T10:26:48;14.17;;;10.40;;
16115;SDS011;8162;47.104;15.432;2024-03-08T10:29:49;13.10;;;10.33;;
16115;SDS011;8162;47.104;15.432;2024-03-08T10:32:51;11.43;;;8.10;;
16115;SDS011;8162;47.104;15.432;2024-03-08T10:35:53;11.77;;;8.83;;
16115;SDS011;8162;47.104;15.432;2024-03-08T10:38:55;11.23;;;8.90;;
16115;SDS011;8162;47.104;15.432;2024-03-08T10:41:58;10.23;;;7.70;;
16115;SDS011;8162;47.104;15.432;2024-03-08T10:45:05;8.23;;;6.77;;
16115;SDS011;8162;47.104;15.432;2024-03-08T10:51:11;9.97;;;7.40;;
16115;SDS011;8162;47.104;15.432;2024-03-08T10:54:12;9.60;;;7.73;;
16115;SDS011;8162;47.104;15.432;2024-03-08T10:57:17;9.67;;;7.60;;
16115;SDS011;8162;47.104;15.432;2024-03-08T11:00:19;9.10;;;7.00;;
16115;SDS011;8162;47.104;15.432;2024-03-08T11:06:44;12.07;;;8.20;;
16115;SDS011;8162;47.104;15.432;2024-03-08T11:09:47;12.03;;;9.17;;
16115;SDS011;8162;47.104;15.432;2024-03-08T11:12:49;10.93;;;8.60;;
16115;SDS011;8162;47.104;15.432;2024-03-08T11:15:50;10.53;;;8.50;;
16115;SDS011;8162;47.104;15.432;2024-03-08T11:22:27;9.57;;;7.97;;
16115;SDS011;8162;47.104;15.432;2024-03-08T11:25:35;8.40;;;7.57;;
16115;SDS011;8162;47.104;15.432;2024-03-08T11:28:39;10.37;;;8.10;;
16115;SDS011;8162;47.104;15.432;2024-03-08T11:31:40;8.83;;;7.57;;
16115;SDS011;8162;47.104;15.432;2024-03-08T11:34:42;9.07;;;7.87;;
16115;SDS011;8162;47.104;15.432;2024-03-08T11:37:44;8.33;;;7.43;;
16115;SDS011;8162;47.104;15.432;2024-03-08T11:40:48;9.00;;;7.63;;
16115;SDS011;8162;47.104;15.432;2024-03-08T11:44:02;10.10;;;8.10;;
16115;SDS011;8162;47.104;15.432;2024-03-08T11:47:08;9.70;;;8.70;;
16115;SDS011;8162;47.104;15.432;2024-03-08T11:50:10;10.30;;;7.60;;
16115;SDS011;8162;47.104;15.432;2024-03-08T11:53:14;8.57;;;7.20;;
16115;SDS011;8162;47.104;15.432;2024-03-08T11:56:15;7.93;;;7.13;;
16115;SDS011;8162;47.104;15.432;2024-03-08T11:59:16;7.43;;;6.63;;
16115;SDS011;8162;47.104;15.432;2024-03-08T12:02:17;8.53;;;6.77;;
16115;SDS011;8162;47.104;15.432;2024-03-08T12:05:19;9.73;;;8.07;;
16115;SDS011;8162;47.104;15.432;2024-03-08T12:08:20;7.97;;;6.33;;
16115;SDS011;8162;47.104;15.432;2024-03-08T12:11:21;8.43;;;6.53;;
16115;SDS011;8162;47.104;15.432;2024-03-08T12:14:23;8.53;;;6.63;;
16115;SDS011;8162;47.104;15.432;2024-03-08T12:17:25;8.83;;;6.30;;
16115;SDS011;8162;47.104;15.432;2024-03-08T12:20:26;9.63;;;6.53;;
16115;SDS011;8162;47.104;15.432;2024-03-08T12:23:31;8.10;;;6.53;;
16115;SDS011;8162;47.104;15.432;2024-03-08T12:26:34;7.97;;;6.87;;
16115;SDS011;8162;47.104;15.432;2024-03-08T12:29:37;7.47;;;6.40;;
16115;SDS011;8162;47.104;15.432;2024-03-08T12:32:39;7.23;;;6.30;;
16115;SDS011;8162;47.104;15.432;2024-03-08T12:35:40;7.67;;;6.00;;
16115;SDS011;8162;47.104;15.432;2024-03-08T12:38:45;8.47;;;6.87;;
16115;SDS011;8162;47.104;15.432;2024-03-08T12:41:49;7.17;;;6.43;;
16115;SDS011;8162;47.104;15.432;2024-03-08T12:44:51;10.50;;;7.93;;
16115;SDS011;8162;47.104;15.432;2024-03-08T12:47:55;8.00;;;7.00;;
16115;SDS011;8162;47.104;15.432;2024-03-08T12:50:57;7.30;;;6.37;;
16115;SDS011;8162;47.104;15.432;2024-03-08T12:53:58;7.60;;;6.70;;
16115;SDS011;8162;47.104;15.432;2024-03-08T12:56:59;7.60;;;6.83;;
16115;SDS011;8162;47.104;15.432;2024-03-08T13:00:00;8.37;;;7.10;;
16115;SDS011;8162;47.104;15.432;2024-03-08T13:03:02;8.50;;;7.00;;
16115;SDS011;8162;47.104;15.432;2024-03-08T13:06:04;8.53;;;6.50;;
16115;SDS011;8162;47.104;15.432;2024-03-08T13:09:08;7.63;;;6.87;;
16115;SDS011;8162;47.104;15.432;2024-03-08T13:12:09;7.83;;;6.90;;
16115;SDS011;8162;47.104;15.432;2024-03-08T13:15:10;8.03;;;6.97;;
16115;SDS011;8162;47.104;15.432;2024-03-08T13:18:15;8.07;;;7.00;;
16115;SDS011;8162;47.104;15.432;2024-03-08T13:21:17;8.97;;;7.57;;
16115;SDS011;8162;47.104;15.432;2024-03-08T13:24:20;10.87;;;7.30;;
16115;SDS011;8162;47.104;15.432;2024-03-08T13:27:20;9.13;;;7.20;;
16115;SDS011;8162;47.104;15.432;2024-03-08T13:30:25;11.27;;;8.00;;
16115;SDS011;8162;47.104;15.432;2024-03-08T13:33:26;9.20;;;7.67;;
16115;SDS011;8162;47.104;15.432;2024-03-08T13:36:27;8.47;;;7.03;;
16115;SDS011;8162;47.104;15.432;2024-03-08T13:39:38;8.37;;;7.47;;
16115;SDS011;8162;47.104;15.432;2024-03-08T13:42:45;8.70;;;7.80;;
16115;SDS011;8162;47.104;15.432;2024-03-08T13:45:47;11.37;;;7.93;;
16115;SDS011;8162;47.104;15.432;2024-03-08T13:48:48;8.50;;;6.87;;
16115;SDS011;8162;47.104;15.432;2024-03-08T13:51:50;8.03;;;6.67;;
16115;SDS011;8162;47.104;15.432;2024-03-08T13:54:52;7.87;;;6.30;;
16115;SDS011;8162;47.104;15.432;2024-03-08T13:57:53;11.17;;;6.87;;
16115;SDS011;8162;47.104;15.432;2024-03-08T14:00:54;8.43;;;7.17;;
16115;SDS011;8162;47.104;15.432;2024-03-08T14:03:55;9.50;;;7.43;;
16115;SDS011;8162;47.104;15.432;2024-03-08T14:06:56;9.77;;;8.03;;
16115;SDS011;8162;47.104;15.432;2024-03-08T14:10:03;9.17;;;7.83;;
16115;SDS011;8162;47.104;15.432;2024-03-08T14:13:06;8.30;;;7.47;;
16115;SDS011;8162;47.104;15.432;2024-03-08T14:16:08;11.30;;;8.53;;
16115;SDS011;8162;47.104;15.432;2024-03-08T14:19:10;10.30;;;9.07;;
16115;SDS011;8162;47.104;15.432;2024-03-08T14:22:11;9.83;;;8.33;;
16115;SDS011;8162;47.104;15.432;2024-03-08T14:25:14;10.80;;;8.47;;
16115;SDS011;8162;47.104;15.432;2024-03-08T14:28:18;9.13;;;7.87;;
16115;SDS011;8162;47.104;15.432;2024-03-08T14:31:19;8.57;;;7.67;;
16115;SDS011;8162;47.104;15.432;2024-03-08T14:34:20;9.50;;;8.07;;
16115;SDS011;8162;47.104;15.432;2024-03-08T14:37:21;9.60;;;8.60;;
16115;SDS011;8162;47.104;15.432;2024-03-08T14:40:28;10.37;;;9.30;;
16115;SDS011;8162;47.104;15.432;2024-03-08T14:43:30;12.43;;;8.93;;
16115;SDS011;8162;47.104;15.432;2024-03-08T14:46:32;10.03;;;8.13;;
16115;SDS011;8162;47.104;15.432;2024-03-08T14:49:33;13.10;;;8.53;;
16115;SDS011;8162;47.104;15.432;2024-03-08T14:52:36;11.87;;;9.03;;
16115;SDS011;8162;47.104;15.432;2024-03-08T14:55:39;9.43;;;8.37;;
16115;SDS011;8162;47.104;15.432;2024-03-08T14:58:40;9.20;;;8.23;;
16115;SDS011;8162;47.104;15.432;2024-03-08T15:01:41;12.53;;;9.23;;
16115;SDS011;8162;47.104;15.432;2024-03-08T15:04:43;10.63;;;8.10;;
16115;SDS011;8162;47.104;15.432;2024-03-08T15:07:53;9.27;;;7.83;;
16115;SDS011;8162;47.104;15.432;2024-03-08T15:10:54;9.90;;;7.33;;
16115;SDS011;8162;47.104;15.432;2024-03-08T15:13:54;11.13;;;8.90;;
16115;SDS011;8162;47.104;15.432;2024-03-08T15:16:58;9.73;;;8.27;;
16115;SDS011;8162;47.104;15.432;2024-03-08T15:19:58;11.47;;;9.03;;
16115;SDS011;8162;47.104;15.432;2024-03-08T15:22:59;9.77;;;8.70;;
16115;SDS011;8162;47.104;15.432;2024-03-08T15:26:00;11.97;;;8.93;;
16115;SDS011;8162;47.104;15.432;2024-03-08T15:29:01;10.63;;;9.23;;
16115;SDS011;8162;47.104;15.432;2024-03-08T15:32:03;11.03;;;8.80;;
16115;SDS011;8162;47.104;15.432;2024-03-08T15:35:05;10.53;;;8.30;;
16115;SDS011;8162;47.104;15.432;2024-03-08T15:38:06;9.93;;;8.17;;
16115;SDS011;8162;47.104;15.432;2024-03-08T15:41:08;10.13;;;8.30;;
16115;SDS011;8162;47.104;15.432;2024-03-08T15:44:12;10.37;;;9.07;;
16115;SDS011;8162;47.104;15.432;2024-03-08T15:47:14;9.87;;;8.03;;
16115;SDS011;8162;47.104;15.432;2024-03-08T15:50:16;10.77;;;8.50;;
16115;SDS011;8162;47.104;15.432;2024-03-08T15:53:17;10.73;;;9.13;;
16115;SDS011;8162;47.104;15.432;2024-03-08T15:56:19;10.07;;;8.43;;
16115;SDS011;8162;47.104;15.432;2024-03-08T15:59:21;13.10;;;9.40;;
16115;SDS011;8162;47.104;15.432;2024-03-08T16:02:22;11.00;;;8.83;;
16115;SDS011;8162;47.104;15.432;2024-03-08T16:05:25;11.70;;;9.97;;
16115;SDS011;8162;47.104;15.432;2024-03-08T16:08:26;12.37;;;10.17;;
16115;SDS011;8162;47.104;15.432;2024-03-08T16:11:28;11.87;;;10.20;;
16115;SDS011;8162;47.104;15.432;2024-03-08T16:14:29;13.27;;;10.13;;
16115;SDS011;8162;47.104;15.432;2024-03-08T16:17:30;13.70;;;11.00;;
16115;SDS011;8162;47.104;15.432;2024-03-08T16:20:31;15.97;;;12.60;;
16115;SDS011;8162;47.104;15.432;2024-03-08T16:23:33;16.63;;;11.97;;
16115;SDS011;8162;47.104;15.432;2024-03-08T16:26:37;15.20;;;11.63;;
16115;SDS011;8162;47.104;15.432;2024-03-08T16:29:39;15.90;;;12.23;;
16115;SDS011;8162;47.104;15.432;2024-03-08T16:32:41;15.43;;;12.80;;
16115;SDS011;8162;47.104;15.432;2024-03-08T16:35:42;16.50;;;13.00;;
16115;SDS011;8162;47.104;15.432;2024-03-08T16:38:44;16.13;;;12.80;;
16115;SDS011;8162;47.104;15.432;2024-03-08T16:41:46;18.80;;;14.13;;
16115;SDS011;8162;47.104;15.432;2024-03-08T16:44:47;19.90;;;14.37;;
16115;SDS011;8162;47.104;15.432;2024-03-08T16:47:49;19.07;;;13.27;;
16115;SDS011;8162;47.104;15.432;2024-03-08T16:50:56;20.43;;;14.27;;
16115;SDS011;8162;47.104;15.432;2024-03-08T16:53:58;18.37;;;14.03;;
16115;SDS011;8162;47.104;15.432;2024-03-08T16:57:01;18.80;;;14.83;;
16115;SDS011;8162;47.104;15.432;2024-03-08T17:00:05;23.17;;;15.90;;
16115;SDS011;8162;47.104;15.432;2024-03-08T17:03:13;23.27;;;17.03;;
16115;SDS011;8162;47.104;15.432;2024-03-08T17:06:14;20.93;;;15.83;;
16115;SDS011;8162;47.104;15.432;2024-03-08T17:09:15;24.43;;;16.83;;
16115;SDS011;8162;47.104;15.432;2024-03-08T17:12:17;24.73;;;18.37;;
16115;SDS011;8162;47.104;15.432;2024-03-08T17:15:20;24.97;;;17.63;;
16115;SDS011;8162;47.104;15.432;2024-03-08T17:18:22;29.67;;;19.07;;
16115;SDS011;8162;47.104;15.432;2024-03-08T17:21:23;26.90;;;18.93;;
16115;SDS011;8162;47.104;15.432;2024-03-08T17:24:24;30.73;;;19.53;;
16115;SDS011;8162;47.104;15.432;2024-03-08T17:27:26;30.03;;;21.13;;
16115;SDS011;8162;47.104;15.432;2024-03-08T17:30:28;31.10;;;22.23;;
16115;SDS011;8162;47.104;15.432;2024-03-08T17:33:30;28.23;;;20.57;;
16115;SDS011;8162;47.104;15.432;2024-03-08T17:36:35;34.53;;;23.87;;
16115;SDS011;8162;47.104;15.432;2024-03-08T17:39:36;32.57;;;24.30;;
16115;SDS011;8162;47.104;15.432;2024-03-08T17:42:38;36.47;;;23.73;;
16115;SDS011;8162;47.104;15.432;2024-03-08T17:45:39;40.95;;;30.85;;
16115;SDS011;8162;47.104;15.432;2024-03-08T17:48:41;38.87;;;25.53;;
16115;SDS011;8162;47.104;15.432;2024-03-08T17:51:42;35.40;;;24.63;;
16115;SDS011;8162;47.104;15.432;2024-03-08T17:54:43;34.27;;;24.43;;
16115;SDS011;8162;47.104;15.432;2024-03-08T17:57:44;36.47;;;24.80;;
16115;SDS011;8162;47.104;15.432;2024-03-08T18:00:49;38.77;;;25.10;;